createdAt,value
2023-05-14T00:28:41.180Z,74
2023-05-14T00:58:02.677Z,73
2023-05-14T01:27:22.992Z,75
2023-05-14T01:56:45.891Z,75
2023-05-14T02:26:07.412Z,76
2023-05-14T02:55:27.959Z,78
2023-05-14T03:24:48.806Z,78
2023-05-14T03:54:05.721Z,77
2023-05-14T04:23:15.820Z,78
2023-05-14T04:52:34.265Z,78
2023-05-14T05:21:59.573Z,79
2023-05-14T05:51:22.079Z,79
2023-05-14T06:20:40.846Z,80
2023-05-14T06:49:59.212Z,80
2023-05-14T07:19:20.288Z,80
2023-05-14T07:48:38.605Z,79
2023-05-14T08:17:55.398Z,78
2023-05-14T08:47:03.508Z,77
2023-05-14T09:16:26.469Z,72
2023-05-14T09:45:45.687Z,69
2023-05-14T10:15:13.815Z,69
2023-05-14T10:44:41.651Z,65
2023-05-14T11:14:05.503Z,65
2023-05-14T11:43:34.364Z,61
2023-05-14T12:12:56.871Z,55
2023-05-14T12:42:15.933Z,58
2023-05-14T13:11:40.718Z,56
2023-05-14T13:41:00.353Z,56
2023-05-14T14:10:10.897Z,49
2023-05-14T14:39:46.116Z,51
2023-05-14T15:09:10.819Z,53
2023-05-14T15:38:30.812Z,53
2023-05-14T16:07:55.705Z,49
2023-05-14T16:37:20.655Z,44
2023-05-14T17:06:45.222Z,44
2023-05-14T17:35:58.344Z,50
2023-05-14T18:05:21.242Z,53
2023-05-14T18:34:11.147Z,55
2023-05-14T19:03:28.469Z,57
2023-05-14T19:32:33.192Z,59
2023-05-14T20:01:46.705Z,60
2023-05-14T20:31:07.562Z,61
2023-05-14T21:00:19.672Z,68
2023-05-14T21:29:40.403Z,71
2023-05-14T21:58:52.644Z,71
2023-05-14T22:28:11.288Z,78
2023-05-14T22:57:26.829Z,81
2023-05-14T23:26:46.819Z,82
2023-05-14T23:56:04.132Z,85
